This is the latest recevied weather packets stored in our database for station/object SQ9IWE-13. If no packets are shown the sender has not sent any weather packets the latest 10 day(s).
| Time | Temp. | Humidity | Pressure | Rain* | Wind** | Luminosity | Snow |
|---|---|---|---|---|---|---|---|
| 1777718401 | 27.22° C | 30% | 1023.5 hPa | - | - | - | - |
| 1777717801 | 28.33° C | 31% | 1023.6 hPa | - | - | - | - |
| 1777717201 | 26.67° C | 34% | 1023.7 hPa | - | - | - | - |
| 1777716601 | 26.67° C | 34% | 1023.7 hPa | - | - | - | - |
| 1777716001 | 25° C | 35% | 1023.7 hPa | - | - | - | - |
| 1777715401 | 23.33° C | 37% | 1023.8 hPa | - | - | - | - |
| 1777714801 | 26.11° C | 35% | 1024.1 hPa | - | - | - | - |
| 1777714201 | 25° C | 36% | 1024 hPa | - | - | - | - |
| 1777713600 | 26.11° C | 35% | 1024.2 hPa | - | - | - | - |
| 1777713000 | 25° C | 35% | 1024.3 hPa | - | - | - | - |
| 1777712401 | 25.56° C | 36% | 1024.5 hPa | - | - | - | - |
| 1777711800 | 25.56° C | 36% | 1024.5 hPa | - | - | - | - |
| 1777711200 | 25° C | 37% | 1024.6 hPa | - | - | - | - |
| 1777710600 | 23.89° C | 39% | 1024.6 hPa | - | - | - | - |
| 1777710000 | 23.89° C | 38% | 1024.6 hPa | - | - | - | - |
| 1777709400 | 24.44° C | 38% | 1024.6 hPa | - | - | - | - |
| 1777708800 | 23.89° C | 38% | 1024.8 hPa | - | - | - | - |
| 1777707600 | 22.22° C | 41% | 1024.7 hPa | - | - | - | - |
| 1777707000 | 21.67° C | 44% | 1024.8 hPa | - | - | - | - |
| 1777706400 | 20° C | 46% | 1024.8 hPa | - | - | - | - |
| 1777705800 | 18.33° C | 50% | 1024.9 hPa | - | - | - | - |
| 1777705200 | 17.78° C | 51% | 1024.8 hPa | - | - | - | - |
| 1777704601 | 17.22° C | 54% | 1024.8 hPa | - | - | - | - |
| 1777704001 | 17.22° C | 53% | 1024.8 hPa | - | - | - | - |
| 1777703401 | 17.78° C | 54% | 1024.8 hPa | - | - | - | - |
* Rain since midnight (hover to see other rain measurements)
** Current wind speed in m/s (hover to see current wind gust speed)